Advertisement
Guest User

xb log

a guest
Feb 16th, 2011
107
Never
Not a member of Pastebin yet? Sign Up, it unlocks many cool features!
  1. 09:06:17 T:3796 M:1373077504 NOTICE: -----------------------------------------------------------------------
  2. 09:06:17 T:3796 M:1373028352 NOTICE: Starting XBMC, Platform: Windows Vista, 64-bit (WoW) Service Pack 1 build 6001. Built on Dec 17 2010 (SVN:35647, compiler 1500)
  3. 09:06:17 T:3796 M:1372991488 NOTICE: Intel(R) Core(TM)2 Quad CPU Q8200 @ 2.33GHz
  4. 09:06:17 T:3796 M:1372962816 NOTICE: Desktop Resolution: 1920x1080 32Bit at 60Hz
  5. 09:06:17 T:3796 M:1372913664 NOTICE: Running with restricted rights
  6. 09:06:17 T:3796 M:1372880896 NOTICE: special://xbmc/ is mapped to: C:\Program Files (x86)\XBMC
  7. 09:06:17 T:3796 M:1372844032 NOTICE: special://xbmcbin/ is mapped to: C:\Program Files (x86)\XBMC
  8. 09:06:17 T:3796 M:1372815360 NOTICE: special://masterprofile/ is mapped to: C:\Users\newtoy337\AppData\Roaming\XBMC\userdata
  9. 09:06:17 T:3796 M:1372741632 NOTICE: special://home/ is mapped to: C:\Users\blabla337\AppData\Roaming\XBMC
  10. 09:06:17 T:3796 M:1372729344 NOTICE: special://temp/ is mapped to: C:\Users\blabla337\AppData\Roaming\XBMC\cache
  11. 09:06:17 T:3796 M:1372721152 NOTICE: The executable running is: C:\Program Files (x86)\XBMC\XBMC.exe
  12. 09:06:17 T:3796 M:1372696576 NOTICE: Log File is located: C:\Users\blabla337\AppData\Roaming\XBMC\xbmc.log
  13. 09:06:17 T:3796 M:1372672000 NOTICE: -----------------------------------------------------------------------
  14. 09:06:17 T:3796 M:1372516352 NOTICE: Setup SDL
  15. 09:06:17 T:3796 M:1372762112 NOTICE: Found screen: Generic PnP Monitor on Intel(R) G45/G43 Express Chipset, adapter 0.
  16. 09:06:17 T:3796 M:1372618752 NOTICE: Primary mode: 1920x1080 @ 60.00 - Full Screen
  17. 09:06:17 T:3796 M:1369587712 NOTICE: Additional mode: 640x480 @ 59.94 - Full Screen
  18. 09:06:17 T:3796 M:1372663808 NOTICE: Additional mode: 640x480 @ 60.00 - Full Screen
  19. 09:06:17 T:3796 M:1372438528 NOTICE: Additional mode: 640x480 @ 75.00 - Full Screen
  20. 09:06:17 T:3796 M:1372618752 NOTICE: Additional mode: 720x480 @ 59.94 - Full Screen
  21. 09:06:17 T:3796 M:1372487680 NOTICE: Additional mode: 720x480 @ 29.97i - Full Screen
  22. 09:06:17 T:3796 M:1372360704 NOTICE: Additional mode: 720x480 @ 60.00 - Full Screen
  23. 09:06:17 T:3796 M:1372225536 NOTICE: Additional mode: 720x480 @ 30.00i - Full Screen
  24. 09:06:17 T:3796 M:1371869184 NOTICE: Additional mode: 720x576 @ 50.00 - Full Screen
  25. 09:06:17 T:3796 M:1371672576 NOTICE: Additional mode: 720x576 @ 25.00i - Full Screen
  26. 09:06:17 T:3796 M:1371672576 NOTICE: Additional mode: 800x600 @ 60.00 - Full Screen
  27. 09:06:17 T:3796 M:1373663232 NOTICE: Additional mode: 800x600 @ 75.00 - Full Screen
  28. 09:06:17 T:3796 M:1371181056 NOTICE: Additional mode: 1024x768 @ 59.94 - Full Screen
  29. 09:06:17 T:3796 M:1371570176 NOTICE: Additional mode: 1024x768 @ 60.00 - Full Screen
  30. 09:06:17 T:3796 M:1371353088 NOTICE: Additional mode: 1024x768 @ 75.00 - Full Screen
  31. 09:06:17 T:3796 M:1370836992 NOTICE: Additional mode: 1152x864 @ 60.00 - Full Screen
  32. 09:06:17 T:3796 M:1370677248 NOTICE: Additional mode: 1152x864 @ 75.00 - Full Screen
  33. 09:06:17 T:3796 M:1370255360 NOTICE: Additional mode: 1280x600 @ 60.00 - Full Screen
  34. 09:06:17 T:3796 M:1370214400 NOTICE: Additional mode: 1280x720 @ 50.00 - Full Screen
  35. 09:06:17 T:3796 M:1370370048 NOTICE: Additional mode: 1280x720 @ 59.94 - Full Screen
  36. 09:06:17 T:3796 M:1370103808 NOTICE: Additional mode: 1280x720 @ 60.00 - Full Screen
  37. 09:06:17 T:3796 M:1369587712 NOTICE: Additional mode: 1280x768 @ 60.00 - Full Screen
  38. 09:06:17 T:3796 M:1369559040 NOTICE: Additional mode: 1280x768 @ 75.00 - Full Screen
  39. 09:06:17 T:3796 M:1373347840 NOTICE: Additional mode: 1280x800 @ 60.00 - Full Screen
  40. 09:06:17 T:3796 M:1371340800 NOTICE: Additional mode: 1280x800 @ 75.00 - Full Screen
  41. 09:06:17 T:3796 M:1371250688 NOTICE: Additional mode: 1280x960 @ 60.00 - Full Screen
  42. 09:06:17 T:3796 M:1371156480 NOTICE: Additional mode: 1280x960 @ 75.00 - Full Screen
  43. 09:06:17 T:3796 M:1370202112 NOTICE: Additional mode: 1280x1024 @ 59.94 - Full Screen
  44. 09:06:17 T:3796 M:1370013696 NOTICE: Additional mode: 1280x1024 @ 60.00 - Full Screen
  45. 09:06:17 T:3796 M:1370456064 NOTICE: Additional mode: 1280x1024 @ 75.00 - Full Screen
  46. 09:06:17 T:3796 M:1370136576 NOTICE: Additional mode: 1360x768 @ 60.00 - Full Screen
  47. 09:06:17 T:3796 M:1370173440 NOTICE: Additional mode: 1366x768 @ 60.00 - Full Screen
  48. 09:06:17 T:3796 M:1369862144 NOTICE: Additional mode: 1400x1050 @ 60.00 - Full Screen
  49. 09:06:17 T:3796 M:1369546752 NOTICE: Additional mode: 1440x900 @ 59.94 - Full Screen
  50. 09:06:17 T:3796 M:1372332032 NOTICE: Additional mode: 1440x900 @ 60.00 - Full Screen
  51. 09:06:17 T:3796 M:1371975680 NOTICE: Additional mode: 1600x900 @ 60.00 - Full Screen
  52. 09:06:17 T:3796 M:1369927680 NOTICE: Additional mode: 1600x1200 @ 59.94 - Full Screen
  53. 09:06:17 T:3796 M:1369755648 NOTICE: Additional mode: 1600x1200 @ 60.00 - Full Screen
  54. 09:06:17 T:3796 M:1369460736 NOTICE: Additional mode: 1680x1050 @ 59.94 - Full Screen
  55. 09:06:17 T:3796 M:1369333760 NOTICE: Additional mode: 1680x1050 @ 60.00 - Full Screen
  56. 09:06:17 T:3796 M:1371234304 NOTICE: Additional mode: 1920x1080 @ 50.00 - Full Screen
  57. 09:06:18 T:3796 M:1373175808 NOTICE: Additional mode: 1920x1080 @ 25.00i - Full Screen
  58. 09:06:18 T:3796 M:1373048832 NOTICE: Additional mode: 1920x1080 @ 59.94 - Full Screen
  59. 09:06:18 T:3796 M:1372868608 NOTICE: Additional mode: 1920x1080 @ 29.97i - Full Screen
  60. 09:06:18 T:3796 M:1372680192 NOTICE: Additional mode: 1920x1080 @ 60.00 - Full Screen
  61. 09:06:18 T:3796 M:1372852224 NOTICE: Additional mode: 1920x1080 @ 30.00i - Full Screen
  62. 09:06:18 T:3796 M:1373315072 NOTICE: load settings...
  63. 09:06:18 T:3796 M:1372573696 NOTICE: special://profile/ is mapped to: special://masterprofile/
  64. 09:06:18 T:3796 M:1372487680 NOTICE: loading special://masterprofile/guisettings.xml
  65. 09:06:18 T:3796 M:1368596480 NOTICE: Getting hardware information now...
  66. 09:06:18 T:3796 M:1371811840 NOTICE: Checking resolution 12
  67. 09:06:18 T:3796 M:1371303936 NOTICE: Loading player core factory settings from special://xbmc/system/playercorefactory.xml.
  68. 09:06:18 T:3796 M:1371254784 NOTICE: Loaded playercorefactory configuration
  69. 09:06:18 T:3796 M:1371144192 NOTICE: Loading player core factory settings from special://masterprofile/playercorefactory.xml.
  70. 09:06:18 T:3796 M:1371029504 NOTICE: special://masterprofile/playercorefactory.xml does not exist. Skipping.
  71. 09:06:18 T:3796 M:1370877952 NOTICE: No advancedsettings.xml to load (special://masterprofile/advancedsettings.xml)
  72. 09:06:18 T:3796 M:1372938240 NOTICE: Default DVD Player: dvdplayer
  73. 09:06:18 T:3796 M:1372913664 NOTICE: Default Video Player: dvdplayer
  74. 09:06:18 T:3796 M:1372913664 NOTICE: Default Audio Player: paplayer
  75. 09:06:18 T:3796 M:1372319744 NOTICE: Loading media sources from special://masterprofile/sources.xml
  76. 09:06:18 T:3796 M:1368809472 NOTICE: initializing playlistplayer
  77. 09:06:18 T:3796 M:1372971008 NOTICE: DONE initializing playlistplayer
  78. 09:06:18 T:3796 M:1356546048 ERROR: Error evaluating boolean expression Container(5040).HasFocus(5) + [PVR.IsRecording | PVR.HasTimer] + !Player.HasMedia
  79. 09:06:18 T:3796 M:1356144640 ERROR: Error evaluating boolean expression !PVR.IsRecording + PVR.HasTimer
  80. 09:06:19 T:3796 M:1350250496 NOTICE: initialize done
  81. 09:06:19 T:3796 M:1350176768 NOTICE: Running the application...
  82. 09:06:19 T:3796 M:1347551232 NOTICE: ES: Starting event server
  83. 09:06:19 T:1688 M:1347342336 NOTICE: ES: Starting UDP Event server on 127.0.0.1:9777
  84. 09:06:19 T:1688 M:1339490304 NOTICE: UDP: Listening on port 9777
  85. 09:06:19 T:3476 M:1333714944 NOTICE: -->Python Interpreter Initialized<--
  86. 09:06:20 T:4688 M:1336090624 NOTICE: -->Python Interpreter Initialized<--
  87. 09:06:22 T:4732 M:1335623680 NOTICE: -->Python Interpreter Initialized<--
  88. 09:06:22 T:3476 M:1327820800 NOTICE: ### TV-Show Next-Aired starting ...
  89. 09:06:22 T:3476 M:1327783936 NOTICE: ### author: Ppic, Frost
  90. 09:06:22 T:3476 M:1327734784 NOTICE: ### URL: http://code.google.com/p/passion-xbmc/
  91. 09:06:22 T:3476 M:1327718400 NOTICE: ### credits: Team Passion-XBMC, http://passion-xbmc.org/
  92. 09:06:22 T:3476 M:1327681536 NOTICE: ### date: 17-10-2010
  93. 09:06:22 T:3476 M:1327656960 NOTICE: ### version: 2.1.2
  94. 09:06:22 T:3476 M:1327321088 NOTICE: {'alarm': '3600', 'silent': 'True'}
  95. 09:06:22 T:3476 M:1324335104 NOTICE: ###db less than 24, fetch local data...
  96. 09:06:22 T:4732 M:1324306432 NOTICE: {'albums': 'True', 'limit': '3', 'totals': 'True'}
  97. 09:06:22 T:3476 M:1327833088 NOTICE: ### Load list: C:\Users\newtoy337\AppData\Roaming\XBMC\userdata\addon_data\script.tv.show.next.aired\next_aired.db
  98. 09:06:22 T:3476 M:1324367872 NOTICE: ###data available
  99. 09:06:22 T:3476 M:1328418816 NOTICE: ### next list: 3 shows ### [{'Status': 'Returning Series', 'ep_img': 'E:\\T.V Shows\\Community\\folder.jpg', 'RFC3339': '2011-02-17T20:00:00-5:00', 'GMT+0 NODST': '1297987200', 'Network': 'NBC', 'Classification': 'Scripted', 'Started': 'Sep/17/2009', 'Show Name': 'Community', 'Show URL': 'http://www.tvrage.com/Community', 'Genres': 'Comedy', 'Premiered': '2009', 'Airtime': 'Thursday at 08:00 pm', 'Ended': '', 'Show ID': '22589', 'Country': 'USA', 'Next Episode': '02x16^Intermediate Documentary Filmmaking^Feb/17/2011', 'path': 'E:\\T.V Shows\\Community\\', 'Runtime': '30', 'localname': 'Community', 'Latest Episode': '02x15^Early 21st Century Romanticism^Feb/10/2011'}, {'Status': 'Returning Series', 'ep_img': 'E:\\T.V Shows\\How.I.Met.Your.Mother\\folder.jpg', 'RFC3339': '2011-02-21T20:00:00-5:00', 'GMT+0 NODST': '1298332800', 'Network': 'CBS', 'Classification': 'Scripted', 'Started': 'Sep/19/2005', 'Show Name': 'How I Met Your Mother', 'Show URL': 'http://www.tvrage.com/How_I_Met_Your_Mother', 'Genres': 'Comedy', 'Premiered': '2005', 'Airtime': 'Monday at 08:00 pm', 'Ended': '', 'Show ID': '3918', 'Country': 'USA', 'Next Episode': '06x17^Garbage Island^Feb/21/2011', 'path': 'E:\\T.V Shows\\How.I.Met.Your.Mother\\', 'Runtime': '30', 'localname': 'How I Met Your Mother', 'Latest Episode': '06x16^Desperation Day^Feb/14/2011'}, {'Status': 'Returning Series', 'ep_img': 'E:\\T.V Shows\\The Big Bang Theory\\folder.jpg', 'RFC3339': '2011-02-17T20:00:00-5:00', 'GMT+0 NODST': '1297987200', 'Network': 'CBS', 'Classification': 'Scripted', 'Started': 'Sep/24/2007', 'Show Name': 'The Big Bang Theory', 'Show URL': 'http://www.tvrage.com/The_Big_Bang_Theory', 'Genres': 'Comedy', 'Premiered': '2007', 'Airtime': 'Thursday at 08:00 pm', 'Ended': '', 'Show ID': '8511', 'Country': 'USA', 'Next Episode': '04x16^The Cohabitation Formulation^Feb/17/2011', 'path': 'E:\\T.V Shows\\The Big Bang Theory\\', 'Runtime': '30', 'localname': 'The Big Bang Theory', 'Latest Episode': '04x15^The Benefactor Factor^Feb/10/2011'}]
  100. 09:06:22 T:3476 M:1328300032 NOTICE: 2011-02-16
  101. 09:06:22 T:3476 M:1324670976 NOTICE: ################
  102. 09:06:22 T:3476 M:1326751744 NOTICE: ###Community
  103. 09:06:22 T:3476 M:1326694400 NOTICE: ###02x16^Intermediate Documentary Filmmaking^Feb/17/2011
  104. 09:06:22 T:3476 M:1326694400 NOTICE: ###2011-02-17T20:00:00-5:00
  105. 09:06:22 T:3476 M:1326694400 NOTICE: 2011-02-17
  106. 09:06:22 T:3476 M:1326694400 NOTICE: ################
  107. 09:06:22 T:3476 M:1326682112 NOTICE: ###The Big Bang Theory
  108. 09:06:22 T:3476 M:1326575616 NOTICE: ###04x16^The Cohabitation Formulation^Feb/17/2011
  109. 09:06:22 T:3476 M:1325973504 NOTICE: ###2011-02-17T20:00:00-5:00
  110. 09:06:22 T:3476 M:1324883968 NOTICE: 2011-02-17
  111. 09:06:22 T:3476 M:1324826624 NOTICE: ################
  112. 09:06:22 T:3476 M:1324769280 NOTICE: ###How I Met Your Mother
  113. 09:06:22 T:3476 M:1324699648 NOTICE: ###06x17^Garbage Island^Feb/21/2011
  114. 09:06:22 T:3476 M:1324646400 NOTICE: ###2011-02-21T20:00:00-5:00
  115. 09:06:22 T:3476 M:1324716032 NOTICE: 2011-02-21
  116. 09:06:22 T:3476 M:1324986368 NOTICE: ###today show: 0 -
  117. 09:06:23 T:3476 M:1322496000 NOTICE: ### Alarm enabled: 3600
  118. 09:06:27 T:4072 M:1331884032 NOTICE: -->Python Interpreter Initialized<--
  119. 09:06:27 T:4072 M:1330393088 NOTICE: [ADDON] 'ShareThe.TV: version 1.1.0' initialized!
  120. 09:06:27 T:4072 M:1329680384 NOTICE: ShareThe.TV: Movie count: 149
  121. 09:06:37 T:3796 M:1331769344 ERROR: Window Translator: Can't find window tv
  122. 09:06:37 T:3796 M:1331769344 ERROR: Error evaluating boolean expression Window.IsVisible(TV) + Control.IsVisible(10)
  123. 09:06:37 T:3796 M:1331773440 ERROR: Window Translator: Can't find window tv
  124. 09:06:37 T:3796 M:1331712000 ERROR: Error evaluating boolean expression Window.IsVisible(TV) + [Control.IsVisible(14) | Control.IsVisible(15) | Control.IsVisible(16) | Control.IsVisible(17)]
  125. 09:06:37 T:3796 M:1331417088 ERROR: Window Translator: Can't find window tv
  126. 09:06:37 T:3796 M:1331302400 ERROR: Error evaluating boolean expression Window.IsVisible(TV) + [Control.IsVisible(11) | Control.IsVisible(12) | Control.IsVisible(13)] + !Skin.HasSetting(FanartShort) + !Skin.HasSetting(FanartLong)
  127. 09:06:37 T:3796 M:1331478528 ERROR: Window Translator: Can't find window tv
  128. 09:06:37 T:3796 M:1331130368 ERROR: Error evaluating boolean expression Window.IsVisible(TV) + [Control.IsVisible(11) | Control.IsVisible(12) | Control.IsVisible(13)] + Skin.HasSetting(FanartShort)
  129. 09:06:37 T:3796 M:1330860032 ERROR: Window Translator: Can't find window tv
  130. 09:06:37 T:3796 M:1330724864 ERROR: Error evaluating boolean expression Window.IsVisible(TV) + [Control.IsVisible(11) | Control.IsVisible(12) | Control.IsVisible(13)] + Skin.HasSetting(FanartLong)
Advertisement
RAW Paste Data Copied
Advertisement